sensor_id;sensor_type;location;lat;lon;timestamp;pressure;altitude;pressure_sealevel;temperature;humidity
42519;BME280;28147;47.520;18.920;2024-01-15T00:01:16;97204.41;;;2.22;60.27
42519;BME280;28147;47.520;18.920;2024-01-15T00:03:41;97208.19;;;2.39;61.03
42519;BME280;28147;47.520;18.920;2024-01-15T00:06:07;97204.97;;;2.30;60.54
42519;BME280;28147;47.520;18.920;2024-01-15T00:08:32;97206.63;;;2.56;59.90
42519;BME280;28147;47.520;18.920;2024-01-15T00:10:57;97196.84;;;2.38;60.35
42519;BME280;28147;47.520;18.920;2024-01-15T00:13:22;97184.09;;;2.74;58.71
42519;BME280;28147;47.520;18.920;2024-01-15T00:15:48;97179.84;;;2.48;59.62
42519;BME280;28147;47.520;18.920;2024-01-15T00:18:13;97175.72;;;2.58;59.76
42519;BME280;28147;47.520;18.920;2024-01-15T00:20:38;97168.16;;;2.68;60.05
42519;BME280;28147;47.520;18.920;2024-01-15T00:23:04;97158.03;;;2.47;60.59
42519;BME280;28147;47.520;18.920;2024-01-15T00:25:29;97141.31;;;2.35;61.05
42519;BME280;28147;47.520;18.920;2024-01-15T00:27:54;97136.91;;;2.60;60.64
42519;BME280;28147;47.520;18.920;2024-01-15T00:30:19;97137.00;;;2.47;61.49
42519;BME280;28147;47.520;18.920;2024-01-15T00:32:45;97131.84;;;2.84;60.22
42519;BME280;28147;47.520;18.920;2024-01-15T00:35:10;97137.94;;;2.84;59.46
42519;BME280;28147;47.520;18.920;2024-01-15T00:37:35;97147.31;;;2.74;59.99
42519;BME280;28147;47.520;18.920;2024-01-15T00:40:01;97137.50;;;2.62;60.36
42519;BME280;28147;47.520;18.920;2024-01-15T00:42:26;97124.25;;;2.76;59.59
42519;BME280;28147;47.520;18.920;2024-01-15T00:44:52;97134.38;;;2.72;59.66
42519;BME280;28147;47.520;18.920;2024-01-15T00:47:19;97124.06;;;2.77;59.77
42519;BME280;28147;47.520;18.920;2024-01-15T00:49:44;97128.94;;;2.74;59.49
42519;BME280;28147;47.520;18.920;2024-01-15T00:52:10;97129.50;;;2.76;59.98
42519;BME280;28147;47.520;18.920;2024-01-15T00:54:35;97127.28;;;2.73;58.71
42519;BME280;28147;47.520;18.920;2024-01-15T00:57:00;97125.03;;;2.76;58.44
42519;BME280;28147;47.520;18.920;2024-01-15T00:59:26;97128.38;;;2.65;59.84
42519;BME280;28147;47.520;18.920;2024-01-15T01:01:51;97123.22;;;2.52;60.15
42519;BME280;28147;47.520;18.920;2024-01-15T01:04:16;97123.72;;;2.92;59.63
42519;BME280;28147;47.520;18.920;2024-01-15T01:06:42;97114.38;;;2.96;59.48
42519;BME280;28147;47.520;18.920;2024-01-15T01:09:07;97105.75;;;2.64;60.32
42519;BME280;28147;47.520;18.920;2024-01-15T01:11:32;97101.28;;;2.64;60.06
42519;BME280;28147;47.520;18.920;2024-01-15T01:13:58;97101.88;;;2.91;59.08
42519;BME280;28147;47.520;18.920;2024-01-15T01:16:23;97108.16;;;2.90;59.13
42519;BME280;28147;47.520;18.920;2024-01-15T01:18:48;97095.97;;;2.96;59.63
42519;BME280;28147;47.520;18.920;2024-01-15T01:21:14;97092.06;;;2.80;59.09
42519;BME280;28147;47.520;18.920;2024-01-15T01:23:39;97105.38;;;2.60;59.55
42519;BME280;28147;47.520;18.920;2024-01-15T01:26:04;97091.38;;;2.41;60.76
42519;BME280;28147;47.520;18.920;2024-01-15T01:28:30;97087.56;;;2.37;60.92
42519;BME280;28147;47.520;18.920;2024-01-15T01:30:55;97093.97;;;2.48;61.20
42519;BME280;28147;47.520;18.920;2024-01-15T01:33:20;97090.09;;;2.26;62.04
42519;BME280;28147;47.520;18.920;2024-01-15T01:35:46;97083.28;;;2.18;62.04
42519;BME280;28147;47.520;18.920;2024-01-15T01:38:12;97071.69;;;2.26;61.82
42519;BME280;28147;47.520;18.920;2024-01-15T01:40:38;97065.00;;;2.05;62.69
42519;BME280;28147;47.520;18.920;2024-01-15T01:43:04;97054.50;;;1.66;63.35
42519;BME280;28147;47.520;18.920;2024-01-15T01:45:30;97057.72;;;1.68;62.99
42519;BME280;28147;47.520;18.920;2024-01-15T01:47:55;97052.09;;;1.65;63.30
42519;BME280;28147;47.520;18.920;2024-01-15T01:50:21;97048.19;;;1.74;62.95
42519;BME280;28147;47.520;18.920;2024-01-15T01:52:47;97041.31;;;2.11;61.80
42519;BME280;28147;47.520;18.920;2024-01-15T01:55:12;97050.47;;;1.70;62.27
42519;BME280;28147;47.520;18.920;2024-01-15T01:57:38;97041.81;;;1.63;63.17
42519;BME280;28147;47.520;18.920;2024-01-15T02:00:04;97040.66;;;1.91;62.29
42519;BME280;28147;47.520;18.920;2024-01-15T02:02:31;97031.69;;;2.05;61.83
42519;BME280;28147;47.520;18.920;2024-01-15T02:04:57;97032.75;;;1.98;60.87
42519;BME280;28147;47.520;18.920;2024-01-15T02:07:22;97024.69;;;1.92;60.98
42519;BME280;28147;47.520;18.920;2024-01-15T02:09:49;97026.09;;;1.63;61.94
42519;BME280;28147;47.520;18.920;2024-01-15T02:12:15;97027.56;;;1.84;61.61
42519;BME280;28147;47.520;18.920;2024-01-15T02:14:40;97025.84;;;1.72;61.63
42519;BME280;28147;47.520;18.920;2024-01-15T02:17:06;97024.13;;;1.52;61.89
42519;BME280;28147;47.520;18.920;2024-01-15T02:19:31;97027.59;;;1.39;62.44
42519;BME280;28147;47.520;18.920;2024-01-15T02:21:57;97034.13;;;1.24;62.28
42519;BME280;28147;47.520;18.920;2024-01-15T02:24:22;97047.00;;;1.32;62.57
42519;BME280;28147;47.520;18.920;2024-01-15T02:29:22;97020.72;;;1.00;63.43
42519;BME280;28147;47.520;18.920;2024-01-15T02:31:47;97026.38;;;0.90;63.72
42519;BME280;28147;47.520;18.920;2024-01-15T02:34:13;97020.16;;;0.78;64.09
42519;BME280;28147;47.520;18.920;2024-01-15T02:36:38;97005.75;;;1.14;63.17
42519;BME280;28147;47.520;18.920;2024-01-15T02:39:03;97001.34;;;1.08;62.90
42519;BME280;28147;47.520;18.920;2024-01-15T02:41:28;96992.44;;;1.15;62.54
42519;BME280;28147;47.520;18.920;2024-01-15T02:43:54;97009.75;;;1.23;62.36
42519;BME280;28147;47.520;18.920;2024-01-15T02:46:19;97018.66;;;1.15;62.61
42519;BME280;28147;47.520;18.920;2024-01-15T02:48:45;97020.22;;;1.23;62.46
42519;BME280;28147;47.520;18.920;2024-01-15T02:51:10;97012.38;;;1.16;62.43
42519;BME280;28147;47.520;18.920;2024-01-15T02:53:36;97012.47;;;0.96;63.22
42519;BME280;28147;47.520;18.920;2024-01-15T02:56:02;97009.50;;;0.80;63.99
42519;BME280;28147;47.520;18.920;2024-01-15T02:58:27;96997.53;;;0.97;63.53
42519;BME280;28147;47.520;18.920;2024-01-15T03:00:53;96994.75;;;0.92;63.64
42519;BME280;28147;47.520;18.920;2024-01-15T03:03:18;96984.28;;;0.92;63.52
42519;BME280;28147;47.520;18.920;2024-01-15T03:05:43;96986.09;;;0.85;63.65
42519;BME280;28147;47.520;18.920;2024-01-15T03:08:09;96984.78;;;1.14;62.86
42519;BME280;28147;47.520;18.920;2024-01-15T03:10:34;96982.84;;;0.89;63.29
42519;BME280;28147;47.520;18.920;2024-01-15T03:12:59;96969.94;;;0.23;65.34
42519;BME280;28147;47.520;18.920;2024-01-15T03:15:24;96977.88;;;0.75;64.17
42519;BME280;28147;47.520;18.920;2024-01-15T03:17:50;96971.19;;;0.85;63.70
42519;BME280;28147;47.520;18.920;2024-01-15T03:20:15;96957.81;;;1.07;63.13
42519;BME280;28147;47.520;18.920;2024-01-15T03:22:40;96951.81;;;0.93;63.28
42519;BME280;28147;47.520;18.920;2024-01-15T03:25:06;96951.25;;;0.78;64.02
42519;BME280;28147;47.520;18.920;2024-01-15T03:27:31;96952.28;;;0.77;64.34
42519;BME280;28147;47.520;18.920;2024-01-15T03:29:57;96958.69;;;0.87;64.20
42519;BME280;28147;47.520;18.920;2024-01-15T03:32:22;96967.63;;;0.66;65.13
42519;BME280;28147;47.520;18.920;2024-01-15T03:34:47;96952.94;;;0.65;66.11
42519;BME280;28147;47.520;18.920;2024-01-15T03:37:13;96953.72;;;0.66;67.00
42519;BME280;28147;47.520;18.920;2024-01-15T03:39:39;96972.84;;;0.66;66.52
42519;BME280;28147;47.520;18.920;2024-01-15T03:42:04;96975.56;;;0.98;65.49
42519;BME280;28147;47.520;18.920;2024-01-15T03:44:29;96971.56;;;0.95;65.43
42519;BME280;28147;47.520;18.920;2024-01-15T03:46:55;96959.53;;;0.75;66.54
42519;BME280;28147;47.520;18.920;2024-01-15T03:49:20;96951.34;;;0.51;66.26
42519;BME280;28147;47.520;18.920;2024-01-15T03:51:45;96958.63;;;0.42;66.51
42519;BME280;28147;47.520;18.920;2024-01-15T03:54:11;96979.69;;;0.67;66.10
42519;BME280;28147;47.520;18.920;2024-01-15T03:56:36;96979.28;;;0.64;66.20
42519;BME280;28147;47.520;18.920;2024-01-15T03:59:02;96965.06;;;0.46;66.39
42519;BME280;28147;47.520;18.920;2024-01-15T04:01:27;96986.91;;;0.79;65.81
42519;BME280;28147;47.520;18.920;2024-01-15T04:03:52;96976.66;;;0.84;65.24
42519;BME280;28147;47.520;18.920;2024-01-15T04:06:18;96943.66;;;0.56;66.02
42519;BME280;28147;47.520;18.920;2024-01-15T04:08:43;96956.75;;;0.69;65.96
42519;BME280;28147;47.520;18.920;2024-01-15T04:11:09;96926.88;;;0.84;65.60
42519;BME280;28147;47.520;18.920;2024-01-15T04:13:34;96955.91;;;0.76;65.84
42519;BME280;28147;47.520;18.920;2024-01-15T04:16:00;96953.72;;;0.72;65.96
42519;BME280;28147;47.520;18.920;2024-01-15T04:18:25;96946.44;;;0.68;66.67
42519;BME280;28147;47.520;18.920;2024-01-15T04:20:51;96944.47;;;0.57;66.44
42519;BME280;28147;47.520;18.920;2024-01-15T04:23:16;96941.03;;;0.69;66.39
42519;BME280;28147;47.520;18.920;2024-01-15T04:25:41;96935.16;;;0.81;66.04
42519;BME280;28147;47.520;18.920;2024-01-15T04:28:08;96965.22;;;0.65;65.74
42519;BME280;28147;47.520;18.920;2024-01-15T04:30:34;96941.59;;;0.71;65.97
42519;BME280;28147;47.520;18.920;2024-01-15T04:32:59;96925.72;;;0.60;66.13
42519;BME280;28147;47.520;18.920;2024-01-15T04:35:24;96933.75;;;0.71;65.85
42519;BME280;28147;47.520;18.920;2024-01-15T04:37:50;96921.66;;;0.77;65.68
42519;BME280;28147;47.520;18.920;2024-01-15T04:40:15;96930.16;;;0.72;65.48
42519;BME280;28147;47.520;18.920;2024-01-15T04:42:41;96928.09;;;0.75;65.46
42519;BME280;28147;47.520;18.920;2024-01-15T04:45:06;96922.03;;;0.81;65.27
42519;BME280;28147;47.520;18.920;2024-01-15T04:47:31;96919.22;;;0.82;65.41
42519;BME280;28147;47.520;18.920;2024-01-15T04:49:57;96924.44;;;0.82;64.92
42519;BME280;28147;47.520;18.920;2024-01-15T04:52:22;96925.22;;;0.31;66.37
42519;BME280;28147;47.520;18.920;2024-01-15T04:54:56;96936.59;;;0.70;66.31
42519;BME280;28147;47.520;18.920;2024-01-15T04:57:21;96941.22;;;0.68;65.27
42519;BME280;28147;47.520;18.920;2024-01-15T05:03:35;96943.09;;;0.54;66.15
42519;BME280;28147;47.520;18.920;2024-01-15T05:06:00;96955.88;;;0.89;64.81
42519;BME280;28147;47.520;18.920;2024-01-15T05:08:26;96954.22;;;0.94;64.56
42519;BME280;28147;47.520;18.920;2024-01-15T05:10:51;96962.00;;;0.56;65.41
42519;BME280;28147;47.520;18.920;2024-01-15T05:16:11;96953.19;;;0.37;65.87
42519;BME280;28147;47.520;18.920;2024-01-15T05:45:42;96970.22;;;0.80;66.25
42519;BME280;28147;47.520;18.920;2024-01-15T05:48:08;96957.94;;;0.67;66.63
42519;BME280;28147;47.520;18.920;2024-01-15T05:54:07;96943.09;;;0.54;65.92
42519;BME280;28147;47.520;18.920;2024-01-15T06:01:16;96937.16;;;0.79;65.04
42519;BME280;28147;47.520;18.920;2024-01-15T06:32:42;96937.34;;;0.84;67.45
42519;BME280;28147;47.520;18.920;2024-01-15T06:35:07;96955.31;;;1.25;65.77
42519;BME280;28147;47.520;18.920;2024-01-15T06:37:33;96957.94;;;1.18;65.27
42519;BME280;28147;47.520;18.920;2024-01-15T06:39:58;96964.25;;;1.11;65.39
42519;BME280;28147;47.520;18.920;2024-01-15T06:44:04;96967.59;;;1.25;64.86
42519;BME280;28147;47.520;18.920;2024-01-15T06:46:29;96967.44;;;0.61;66.49
42519;BME280;28147;47.520;18.920;2024-01-15T06:48:55;96955.47;;;0.85;66.45
42519;BME280;28147;47.520;18.920;2024-01-15T06:51:20;96959.03;;;1.04;65.67
42519;BME280;28147;47.520;18.920;2024-01-15T06:53:45;96964.97;;;0.80;66.42
42519;BME280;28147;47.520;18.920;2024-01-15T06:56:10;96962.00;;;0.56;66.48
42519;BME280;28147;47.520;18.920;2024-01-15T07:00:31;96963.19;;;0.67;67.04
42519;BME280;28147;47.520;18.920;2024-01-15T07:07:06;96965.78;;;0.80;67.00
42519;BME280;28147;47.520;18.920;2024-01-15T07:09:41;96978.00;;;0.93;66.73
42519;BME280;28147;47.520;18.920;2024-01-15T07:13:21;96973.84;;;1.24;66.12
42519;BME280;28147;47.520;18.920;2024-01-15T07:15:57;96972.41;;;1.28;65.87
42519;BME280;28147;47.520;18.920;2024-01-15T07:18:22;96961.00;;;1.09;66.37
42519;BME280;28147;47.520;18.920;2024-01-15T07:20:48;96972.53;;;1.01;66.89
42519;BME280;28147;47.520;18.920;2024-01-15T07:23:13;96970.72;;;1.02;66.83
42519;BME280;28147;47.520;18.920;2024-01-15T07:25:39;96984.94;;;1.26;66.72
42519;BME280;28147;47.520;18.920;2024-01-15T07:28:51;96982.25;;;1.39;66.46
42519;BME280;28147;47.520;18.920;2024-01-15T07:33:50;96977.22;;;0.92;68.18
42519;BME280;28147;47.520;18.920;2024-01-15T07:36:16;96995.56;;;0.86;68.85
42519;BME280;28147;47.520;18.920;2024-01-15T07:39:36;97003.75;;;1.09;68.35
42519;BME280;28147;47.520;18.920;2024-01-15T07:42:11;96980.69;;;0.80;68.66
42519;BME280;28147;47.520;18.920;2024-01-15T07:44:37;97008.56;;;1.12;68.55
42519;BME280;28147;47.520;18.920;2024-01-15T07:48:45;96996.19;;;0.88;68.99
42519;BME280;28147;47.520;18.920;2024-01-15T07:51:10;97005.16;;;1.12;68.14
42519;BME280;28147;47.520;18.920;2024-01-15T07:57:01;97001.56;;;1.06;68.22
42519;BME280;28147;47.520;18.920;2024-01-15T07:59:28;96996.56;;;1.36;67.94
42519;BME280;28147;47.520;18.920;2024-01-15T08:01:54;97005.41;;;1.80;66.46
42519;BME280;28147;47.520;18.920;2024-01-15T08:04:20;97004.56;;;2.11;64.63
42519;BME280;28147;47.520;18.920;2024-01-15T08:06:45;97008.88;;;2.49;63.15
42519;BME280;28147;47.520;18.920;2024-01-15T08:09:11;97002.47;;;2.45;61.93
42519;BME280;28147;47.520;18.920;2024-01-15T08:11:41;97006.75;;;3.01;61.37
42519;BME280;28147;47.520;18.920;2024-01-15T08:14:07;96994.84;;;2.99;59.86
42519;BME280;28147;47.520;18.920;2024-01-15T08:16:32;96988.31;;;3.38;59.12
42519;BME280;28147;47.520;18.920;2024-01-15T08:18:58;96984.00;;;3.85;57.58
42519;BME280;28147;47.520;18.920;2024-01-15T08:21:24;96997.81;;;4.23;55.68
42519;BME280;28147;47.520;18.920;2024-01-15T08:23:49;96993.94;;;4.37;52.86
42519;BME280;28147;47.520;18.920;2024-01-15T08:26:14;96990.59;;;4.42;52.07
42519;BME280;28147;47.520;18.920;2024-01-15T08:28:40;96999.75;;;4.86;51.29
42519;BME280;28147;47.520;18.920;2024-01-15T08:31:05;96990.09;;;5.03;51.16
42519;BME280;28147;47.520;18.920;2024-01-15T08:33:30;97001.25;;;5.46;49.57
42519;BME280;28147;47.520;18.920;2024-01-15T08:35:55;96997.84;;;5.22;50.13
42519;BME280;28147;47.520;18.920;2024-01-15T08:38:21;96999.47;;;5.51;49.20
42519;BME280;28147;47.520;18.920;2024-01-15T08:40:46;97008.41;;;5.79;48.17
42519;BME280;28147;47.520;18.920;2024-01-15T08:43:12;96995.38;;;5.72;47.91
42519;BME280;28147;47.520;18.920;2024-01-15T08:45:38;97016.47;;;6.29;46.55
42519;BME280;28147;47.520;18.920;2024-01-15T08:48:04;97004.66;;;6.03;46.53
42519;BME280;28147;47.520;18.920;2024-01-15T08:50:29;97004.03;;;6.64;46.18
42519;BME280;28147;47.520;18.920;2024-01-15T08:52:55;97007.97;;;6.44;46.22
42519;BME280;28147;47.520;18.920;2024-01-15T08:55:21;97010.13;;;6.47;45.13
42519;BME280;28147;47.520;18.920;2024-01-15T08:57:48;97002.50;;;7.06;44.76
42519;BME280;28147;47.520;18.920;2024-01-15T09:00:13;97006.88;;;7.40;43.86
42519;BME280;28147;47.520;18.920;2024-01-15T09:02:39;97010.66;;;7.98;42.67
42519;BME280;28147;47.520;18.920;2024-01-15T09:05:04;97012.63;;;7.80;42.48
42519;BME280;28147;47.520;18.920;2024-01-15T09:07:30;97020.28;;;7.55;42.56
42519;BME280;28147;47.520;18.920;2024-01-15T09:09:55;97022.06;;;6.67;43.69
42519;BME280;28147;47.520;18.920;2024-01-15T09:12:20;97021.63;;;6.24;44.70
42519;BME280;28147;47.520;18.920;2024-01-15T09:14:47;97018.38;;;6.68;43.99
42519;BME280;28147;47.520;18.920;2024-01-15T09:17:12;97010.53;;;6.95;43.11
42519;BME280;28147;47.520;18.920;2024-01-15T09:19:38;97016.34;;;7.85;41.96
42519;BME280;28147;47.520;18.920;2024-01-15T09:22:07;97013.63;;;7.30;41.88
42519;BME280;28147;47.520;18.920;2024-01-15T09:24:32;97002.69;;;7.44;42.01
42519;BME280;28147;47.520;18.920;2024-01-15T09:26:57;97005.50;;;6.93;42.35
42519;BME280;28147;47.520;18.920;2024-01-15T09:29:23;97007.91;;;6.78;42.88
42519;BME280;28147;47.520;18.920;2024-01-15T09:31:49;97004.44;;;7.87;42.24
42519;BME280;28147;47.520;18.920;2024-01-15T09:34:15;96995.25;;;7.95;41.31
42519;BME280;28147;47.520;18.920;2024-01-15T09:36:40;96996.25;;;7.89;41.31
42519;BME280;28147;47.520;18.920;2024-01-15T09:39:10;96985.88;;;7.82;40.94
42519;BME280;28147;47.520;18.920;2024-01-15T09:41:37;96990.63;;;8.12;41.20
42519;BME280;28147;47.520;18.920;2024-01-15T09:44:03;96982.00;;;8.27;40.84
42519;BME280;28147;47.520;18.920;2024-01-15T09:46:30;96977.97;;;8.51;40.80
42519;BME280;28147;47.520;18.920;2024-01-15T09:48:56;96976.09;;;8.15;40.27
42519;BME280;28147;47.520;18.920;2024-01-15T09:51:21;96957.41;;;8.37;40.89
42519;BME280;28147;47.520;18.920;2024-01-15T09:53:48;96958.06;;;7.57;41.75
42519;BME280;28147;47.520;18.920;2024-01-15T09:56:14;96963.63;;;8.15;41.73
42519;BME280;28147;47.520;18.920;2024-01-15T09:58:39;96964.41;;;8.11;41.07
42519;BME280;28147;47.520;18.920;2024-01-15T10:01:07;96965.88;;;8.71;40.27
42519;BME280;28147;47.520;18.920;2024-01-15T10:03:33;96951.53;;;8.62;40.75
42519;BME280;28147;47.520;18.920;2024-01-15T10:05:59;96957.38;;;9.21;39.53
42519;BME280;28147;47.520;18.920;2024-01-15T10:08:25;96942.78;;;8.29;38.92
42519;BME280;28147;47.520;18.920;2024-01-15T10:10:50;96936.09;;;8.53;39.41
42519;BME280;28147;47.520;18.920;2024-01-15T10:13:16;96927.44;;;8.68;38.51
42519;BME280;28147;47.520;18.920;2024-01-15T10:15:45;96930.59;;;8.65;38.22
42519;BME280;28147;47.520;18.920;2024-01-15T10:18:11;96932.66;;;8.53;38.36
42519;BME280;28147;47.520;18.920;2024-01-15T10:20:37;96921.06;;;8.32;38.13
42519;BME280;28147;47.520;18.920;2024-01-15T10:23:03;96917.94;;;8.03;38.65
42519;BME280;28147;47.520;18.920;2024-01-15T10:25:29;96917.59;;;7.94;39.09
42519;BME280;28147;47.520;18.920;2024-01-15T10:28:03;96908.34;;;8.76;38.16
42519;BME280;28147;47.520;18.920;2024-01-15T10:30:29;96923.44;;;8.28;39.26
42519;BME280;28147;47.520;18.920;2024-01-15T10:33:02;96917.81;;;8.20;39.08
42519;BME280;28147;47.520;18.920;2024-01-15T10:35:29;96913.88;;;8.27;39.13
42519;BME280;28147;47.520;18.920;2024-01-15T10:37:55;96908.44;;;8.07;39.52
42519;BME280;28147;47.520;18.920;2024-01-15T10:40:20;96914.81;;;7.74;39.97
42519;BME280;28147;47.520;18.920;2024-01-15T10:42:45;96915.91;;;7.24;41.06
42519;BME280;28147;47.520;18.920;2024-01-15T10:45:13;96901.91;;;7.88;41.20
42519;BME280;28147;47.520;18.920;2024-01-15T10:47:38;96909.38;;;8.28;40.49
42519;BME280;28147;47.520;18.920;2024-01-15T10:50:05;96900.72;;;8.00;40.59
42519;BME280;28147;47.520;18.920;2024-01-15T10:52:33;96897.47;;;8.78;39.96
42519;BME280;28147;47.520;18.920;2024-01-15T10:54:59;96902.81;;;8.83;39.60
42519;BME280;28147;47.520;18.920;2024-01-15T10:57:26;96897.69;;;8.24;39.83
42519;BME280;28147;47.520;18.920;2024-01-15T10:59:51;96898.56;;;8.35;40.76
42519;BME280;28147;47.520;18.920;2024-01-15T11:02:17;96907.34;;;8.40;39.86
42519;BME280;28147;47.520;18.920;2024-01-15T11:04:42;96912.44;;;8.10;40.72
42519;BME280;28147;47.520;18.920;2024-01-15T11:07:08;96915.25;;;6.90;43.14
42519;BME280;28147;47.520;18.920;2024-01-15T11:09:34;96904.81;;;7.27;42.11
42519;BME280;28147;47.520;18.920;2024-01-15T11:12:10;96908.78;;;8.21;41.16
42519;BME280;28147;47.520;18.920;2024-01-15T11:14:40;96903.84;;;8.35;40.69
42519;BME280;28147;47.520;18.920;2024-01-15T11:17:09;96915.13;;;8.52;40.50
42519;BME280;28147;47.520;18.920;2024-01-15T11:19:38;96904.66;;;8.35;40.48
42519;BME280;28147;47.520;18.920;2024-01-15T11:24:54;96908.56;;;7.90;41.19
42519;BME280;28147;47.520;18.920;2024-01-15T11:27:39;96914.88;;;8.16;40.65
42519;BME280;28147;47.520;18.920;2024-01-15T11:30:08;96902.66;;;9.10;40.07
42519;BME280;28147;47.520;18.920;2024-01-15T11:32:34;96904.94;;;8.86;38.99
42519;BME280;28147;47.520;18.920;2024-01-15T11:35:01;96898.75;;;9.33;38.68
42519;BME280;28147;47.520;18.920;2024-01-15T11:40:21;96901.44;;;9.59;38.32
42519;BME280;28147;47.520;18.920;2024-01-15T11:42:48;96877.31;;;8.82;39.09
42519;BME280;28147;47.520;18.920;2024-01-15T11:45:20;96878.13;;;8.35;40.06
42519;BME280;28147;47.520;18.920;2024-01-15T11:50:30;96854.34;;;7.66;40.75
42519;BME280;28147;47.520;18.920;2024-01-15T11:53:02;96855.75;;;8.11;40.56
42519;BME280;28147;47.520;18.920;2024-01-15T11:55:36;96846.75;;;7.79;40.33
42519;BME280;28147;47.520;18.920;2024-01-15T11:58:08;96848.75;;;7.62;41.30
42519;BME280;28147;47.520;18.920;2024-01-15T12:00:33;96854.88;;;7.68;40.84
42519;BME280;28147;47.520;18.920;2024-01-15T12:02:59;96856.56;;;7.79;41.51
42519;BME280;28147;47.520;18.920;2024-01-15T12:05:24;96850.19;;;7.80;41.63
42519;BME280;28147;47.520;18.920;2024-01-15T12:07:50;96848.16;;;7.55;41.40
42519;BME280;28147;47.520;18.920;2024-01-15T12:10:20;96846.16;;;7.72;41.76
42519;BME280;28147;47.520;18.920;2024-01-15T12:13:06;96854.38;;;7.71;41.30
42519;BME280;28147;47.520;18.920;2024-01-15T12:15:35;96843.09;;;8.28;40.92
42519;BME280;28147;47.520;18.920;2024-01-15T12:18:01;96848.94;;;7.50;41.40
42519;BME280;28147;47.520;18.920;2024-01-15T12:20:30;96845.69;;;8.18;40.68
42519;BME280;28147;47.520;18.920;2024-01-15T12:22:56;96842.63;;;7.94;40.95
42519;BME280;28147;47.520;18.920;2024-01-15T12:25:25;96840.97;;;7.83;41.37
42519;BME280;28147;47.520;18.920;2024-01-15T12:27:52;96825.75;;;7.68;40.78
42519;BME280;28147;47.520;18.920;2024-01-15T12:30:17;96798.06;;;7.16;41.70
42519;BME280;28147;47.520;18.920;2024-01-15T12:32:44;96809.53;;;7.27;41.44
42519;BME280;28147;47.520;18.920;2024-01-15T12:35:13;96821.88;;;7.16;42.05
42519;BME280;28147;47.520;18.920;2024-01-15T12:37:39;96811.56;;;6.66;42.81
42519;BME280;28147;47.520;18.920;2024-01-15T12:40:07;96815.06;;;6.49;42.88
42519;BME280;28147;47.520;18.920;2024-01-15T12:42:36;96818.88;;;6.58;43.52
42519;BME280;28147;47.520;18.920;2024-01-15T12:45:02;96817.63;;;6.66;42.68
42519;BME280;28147;47.520;18.920;2024-01-15T12:47:30;96816.03;;;6.65;42.76
42519;BME280;28147;47.520;18.920;2024-01-15T12:49:55;96815.75;;;6.40;43.45
42519;BME280;28147;47.520;18.920;2024-01-15T12:52:20;96812.53;;;6.16;44.09
42519;BME280;28147;47.520;18.920;2024-01-15T12:54:52;96801.44;;;5.97;44.62
42519;BME280;28147;47.520;18.920;2024-01-15T12:57:17;96792.72;;;5.96;44.46
42519;BME280;28147;47.520;18.920;2024-01-15T12:59:43;96798.06;;;6.01;44.44
42519;BME280;28147;47.520;18.920;2024-01-15T13:02:10;96790.91;;;5.80;44.95
42519;BME280;28147;47.520;18.920;2024-01-15T13:04:35;96802.72;;;5.60;45.40
42519;BME280;28147;47.520;18.920;2024-01-15T13:07:01;96807.13;;;5.72;45.52
42519;BME280;28147;47.520;18.920;2024-01-15T13:09:26;96821.31;;;5.99;44.99
42519;BME280;28147;47.520;18.920;2024-01-15T13:11:51;96826.81;;;5.98;44.65
42519;BME280;28147;47.520;18.920;2024-01-15T13:14:17;96825.34;;;5.90;45.52
42519;BME280;28147;47.520;18.920;2024-01-15T13:16:43;96831.06;;;5.99;45.00
42519;BME280;28147;47.520;18.920;2024-01-15T13:19:09;96821.59;;;5.86;45.71
42519;BME280;28147;47.520;18.920;2024-01-15T13:21:36;96822.34;;;5.48;46.12
42519;BME280;28147;47.520;18.920;2024-01-15T13:24:02;96825.94;;;5.58;45.81
42519;BME280;28147;47.520;18.920;2024-01-15T13:26:28;96826.66;;;5.54;46.00
42519;BME280;28147;47.520;18.920;2024-01-15T13:28:53;96821.78;;;5.63;46.29
42519;BME280;28147;47.520;18.920;2024-01-15T13:31:18;96827.06;;;5.46;46.46
42519;BME280;28147;47.520;18.920;2024-01-15T13:33:44;96820.59;;;5.53;46.47
42519;BME280;28147;47.520;18.920;2024-01-15T13:36:09;96825.59;;;5.21;46.72
42519;BME280;28147;47.520;18.920;2024-01-15T13:38:36;96833.53;;;5.38;46.90
42519;BME280;28147;47.520;18.920;2024-01-15T13:41:04;96832.00;;;5.25;46.99
42519;BME280;28147;47.520;18.920;2024-01-15T13:43:31;96832.16;;;5.52;46.42
42519;BME280;28147;47.520;18.920;2024-01-15T13:45:56;96834.41;;;5.44;46.51
42519;BME280;28147;47.520;18.920;2024-01-15T13:48:22;96832.31;;;5.29;46.95
42519;BME280;28147;47.520;18.920;2024-01-15T13:50:47;96831.91;;;5.37;47.15
42519;BME280;28147;47.520;18.920;2024-01-15T13:53:12;96835.28;;;5.32;47.26
42519;BME280;28147;47.520;18.920;2024-01-15T13:55:38;96835.38;;;5.54;46.72
42519;BME280;28147;47.520;18.920;2024-01-15T13:58:03;96833.59;;;5.60;46.53
42519;BME280;28147;47.520;18.920;2024-01-15T14:00:31;96828.00;;;5.56;46.76
42519;BME280;28147;47.520;18.920;2024-01-15T14:02:56;96838.50;;;5.51;46.99
42519;BME280;28147;47.520;18.920;2024-01-15T14:05:22;96830.56;;;5.51;47.06
42519;BME280;28147;47.520;18.920;2024-01-15T14:07:48;96819.47;;;5.66;46.48
42519;BME280;28147;47.520;18.920;2024-01-15T14:10:13;96819.28;;;5.22;47.62
42519;BME280;28147;47.520;18.920;2024-01-15T14:12:38;96826.63;;;5.37;47.40
42519;BME280;28147;47.520;18.920;2024-01-15T14:15:05;96834.88;;;5.41;47.52
42519;BME280;28147;47.520;18.920;2024-01-15T14:17:31;96840.34;;;5.05;47.62
42519;BME280;28147;47.520;18.920;2024-01-15T14:19:56;96832.31;;;5.12;47.62
42519;BME280;28147;47.520;18.920;2024-01-15T14:22:22;96826.75;;;4.97;47.76
42519;BME280;28147;47.520;18.920;2024-01-15T14:24:47;96829.22;;;5.03;47.73
42519;BME280;28147;47.520;18.920;2024-01-15T14:27:13;96822.25;;;4.69;48.13
42519;BME280;28147;47.520;18.920;2024-01-15T14:29:38;96831.16;;;4.79;47.85
42519;BME280;28147;47.520;18.920;2024-01-15T14:32:04;96829.75;;;4.60;48.14
42519;BME280;28147;47.520;18.920;2024-01-15T14:34:30;96836.34;;;4.74;48.40